createdAt,value
2018-04-18T00:00:30.162Z,8.32
2018-04-18T00:02:57.018Z,8.30
2018-04-18T00:05:24.161Z,8.55
2018-04-18T00:07:50.987Z,8.10
2018-04-18T00:10:17.831Z,8.50
2018-04-18T00:12:44.697Z,8.45
2018-04-18T00:15:11.547Z,8.20
2018-04-18T00:17:38.432Z,7.80
2018-04-18T00:20:05.298Z,8.50
2018-04-18T00:22:32.133Z,8.63
2018-04-18T00:24:58.978Z,9.07
2018-04-18T00:27:25.837Z,8.70
2018-04-18T00:29:53.004Z,8.55
2018-04-18T00:32:19.825Z,8.43
2018-04-18T00:34:46.638Z,10.02
2018-04-18T00:37:13.492Z,9.13
2018-04-18T00:39:40.340Z,9.10
2018-04-18T00:42:07.397Z,9.23
2018-04-18T00:44:34.570Z,9.57
2018-04-18T00:47:01.679Z,8.73
2018-04-18T00:49:28.871Z,8.82
2018-04-18T00:51:56.018Z,9.40
2018-04-18T00:54:23.175Z,9.60
2018-04-18T00:56:50.316Z,9.18
2018-04-18T00:59:17.471Z,10.00
2018-04-18T01:01:44.355Z,9.20
2018-04-18T01:04:11.206Z,10.65
2018-04-18T01:06:38.030Z,9.40
2018-04-18T01:09:04.869Z,9.60
2018-04-18T01:11:31.725Z,8.83
2018-04-18T01:13:58.781Z,9.48
2018-04-18T01:16:25.654Z,9.40
2018-04-18T01:18:52.497Z,9.80
2018-04-18T01:21:19.325Z,10.00
2018-04-18T01:23:46.161Z,9.63
2018-04-18T01:26:13.004Z,10.30
2018-04-18T01:28:39.842Z,10.20
2018-04-18T01:31:06.948Z,9.43
2018-04-18T01:33:34.103Z,9.57
2018-04-18T01:36:00.922Z,10.30
2018-04-18T01:38:27.751Z,9.90
2018-04-18T01:40:54.565Z,9.90
2018-04-18T01:43:21.412Z,10.38
2018-04-18T01:45:48.283Z,10.80
2018-04-18T01:48:15.179Z,10.40
2018-04-18T01:50:41.997Z,10.30
2018-04-18T01:53:08.828Z,10.43
2018-04-18T01:55:35.684Z,10.77
2018-04-18T01:58:02.839Z,11.05
2018-04-18T02:00:29.687Z,12.55
2018-04-18T02:02:56.547Z,11.10
2018-04-18T02:05:23.392Z,11.45
2018-04-18T02:07:50.631Z,11.30
2018-04-18T02:10:17.462Z,10.93
2018-04-18T02:12:44.615Z,11.50
2018-04-18T02:15:11.757Z,11.20
2018-04-18T02:17:38.657Z,10.90
2018-04-18T02:20:05.482Z,10.40
2018-04-18T02:22:32.707Z,10.40
2018-04-18T02:24:59.592Z,10.48
2018-04-18T02:27:26.488Z,10.50
2018-04-18T02:29:53.342Z,11.35
2018-04-18T02:32:20.197Z,10.70
2018-04-18T02:34:47.018Z,10.65
2018-04-18T02:37:13.845Z,10.67
2018-04-18T02:39:40.727Z,10.30
2018-04-18T02:42:07.591Z,10.27
2018-04-18T02:44:34.804Z,10.48
2018-04-18T02:47:01.663Z,10.30
2018-04-18T02:49:28.554Z,10.60
2018-04-18T02:51:55.411Z,11.05
2018-04-18T02:54:22.263Z,10.30
2018-04-18T02:56:49.427Z,10.10
2018-04-18T02:59:16.580Z,10.40
2018-04-18T03:01:43.449Z,10.82
2018-04-18T03:04:10.319Z,10.20
2018-04-18T03:06:37.235Z,10.52
2018-04-18T03:09:04.104Z,11.07
2018-04-18T03:11:31.007Z,10.20
2018-04-18T03:13:58.866Z,10.60
2018-04-18T03:16:25.681Z,10.52
2018-04-18T03:18:52.853Z,9.90
2018-04-18T03:21:19.661Z,9.90
2018-04-18T03:23:46.549Z,10.40
2018-04-18T03:26:13.370Z,9.73
2018-04-18T03:28:40.225Z,10.40
2018-04-18T03:31:07.383Z,10.10
2018-04-18T03:33:34.230Z,11.05
2018-04-18T03:36:01.379Z,10.55
2018-04-18T03:38:28.521Z,11.20
2018-04-18T03:40:55.350Z,10.60
2018-04-18T03:43:22.173Z,11.20
2018-04-18T03:45:48.993Z,11.10
2018-04-18T03:48:16.101Z,11.18
2018-04-18T03:50:42.916Z,10.90
2018-04-18T03:53:09.742Z,11.70
2018-04-18T03:55:36.609Z,11.43
2018-04-18T03:58:03.533Z,11.40
2018-04-18T04:00:30.375Z,11.00
2018-04-18T04:02:57.220Z,11.70
2018-04-18T04:05:25.230Z,12.70
2018-04-18T04:07:52.062Z,11.45
2018-04-18T04:10:19.225Z,11.70
2018-04-18T04:12:46.079Z,11.93
2018-04-18T04:15:13.222Z,11.27
2018-04-18T04:17:46.205Z,12.15
2018-04-18T04:20:19.111Z,11.47
2018-04-18T04:22:51.962Z,12.80
2018-04-18T04:25:18.838Z,11.32
2018-04-18T04:27:45.715Z,11.73
2018-04-18T04:30:12.600Z,11.90
2018-04-18T04:32:39.453Z,11.45
2018-04-18T04:35:06.289Z,12.80
2018-04-18T04:37:33.445Z,12.60
2018-04-18T04:40:00.599Z,11.30
2018-04-18T04:42:27.502Z,11.48
2018-04-18T04:44:54.366Z,11.50
2018-04-18T04:47:21.166Z,11.82
2018-04-18T04:49:48.035Z,11.90
2018-04-18T04:52:14.850Z,12.32
2018-04-18T04:54:41.914Z,11.20
2018-04-18T04:57:08.777Z,12.25
2018-04-18T04:59:35.666Z,11.52
2018-04-18T05:02:02.536Z,12.00
2018-04-18T05:04:29.369Z,12.80
2018-04-18T05:06:56.214Z,11.80
2018-04-18T05:09:23.066Z,13.05
2018-04-18T05:11:49.922Z,12.65
2018-04-18T05:14:17.122Z,12.05
2018-04-18T05:16:43.979Z,10.43
2018-04-18T05:19:10.843Z,12.20
2018-04-18T05:21:37.722Z,12.43
2018-04-18T05:24:04.566Z,12.63
2018-04-18T05:26:31.428Z,10.70
2018-04-18T05:28:58.287Z,10.63
2018-04-18T05:31:25.438Z,12.63
2018-04-18T05:33:52.253Z,11.57
2018-04-18T05:36:19.107Z,12.07
2018-04-18T05:38:46.264Z,12.68
2018-04-18T05:41:13.102Z,11.95
2018-04-18T05:43:39.954Z,12.48
2018-04-18T05:46:07.105Z,10.85
2018-04-18T05:48:33.952Z,12.27
2018-04-18T05:51:00.841Z,13.68
2018-04-18T05:53:27.686Z,12.02
2018-04-18T05:55:54.560Z,13.00
2018-04-18T05:58:21.432Z,12.40
2018-04-18T06:00:48.260Z,12.23
2018-04-18T06:03:15.113Z,13.13
2018-04-18T06:05:41.991Z,12.80
2018-04-18T06:08:08.822Z,12.02
2018-04-18T06:10:35.726Z,12.30
2018-04-18T06:13:02.578Z,13.90
2018-04-18T06:15:29.429Z,15.30
2018-04-18T06:17:56.294Z,14.18
2018-04-18T06:20:23.133Z,12.90
2018-04-18T06:22:49.965Z,14.80
2018-04-18T06:25:17.114Z,14.00
2018-04-18T06:27:44.000Z,15.88
2018-04-18T06:30:10.863Z,15.60
2018-04-18T06:32:37.746Z,15.00
2018-04-18T06:35:04.890Z,15.50
2018-04-18T06:37:31.754Z,17.27
2018-04-18T06:39:58.620Z,17.67
2018-04-18T06:42:25.425Z,16.02
2018-04-18T06:44:52.524Z,16.70
2018-04-18T06:47:19.371Z,16.10
2018-04-18T06:49:46.256Z,16.98
2018-04-18T06:52:13.154Z,16.27
2018-04-18T06:54:40.031Z,16.55
2018-04-18T06:57:07.093Z,16.58
2018-04-18T06:59:33.927Z,18.20
2018-04-18T07:02:00.819Z,18.05
2018-04-18T07:04:27.696Z,18.52
2018-04-18T07:06:54.595Z,18.60
2018-04-18T07:09:21.455Z,18.45
2018-04-18T07:11:48.547Z,17.40
2018-04-18T07:14:15.719Z,17.53
2018-04-18T07:16:42.870Z,18.33
2018-04-18T07:19:10.020Z,18.92
2018-04-18T07:21:36.860Z,19.45
2018-04-18T07:24:03.681Z,20.13
2018-04-18T07:26:30.749Z,16.87
2018-04-18T07:28:57.602Z,15.80
2018-04-18T07:31:24.486Z,18.23
2018-04-18T07:33:51.298Z,15.57
2018-04-18T07:36:18.178Z,15.47
2018-04-18T07:38:44.993Z,15.10
2018-04-18T07:41:11.849Z,14.80
2018-04-18T07:43:38.710Z,14.87
2018-04-18T07:46:05.915Z,15.23
2018-04-18T07:48:32.750Z,15.10
2018-04-18T07:50:59.593Z,15.98
2018-04-18T07:53:26.747Z,14.50
2018-04-18T07:55:53.597Z,14.43
2018-04-18T07:58:20.739Z,15.32
2018-04-18T08:00:47.797Z,14.93
2018-04-18T08:03:14.939Z,15.55
2018-04-18T08:05:41.795Z,15.50
2018-04-18T08:08:08.656Z,15.77
2018-04-18T08:10:35.886Z,14.93
2018-04-18T08:13:02.751Z,15.33
2018-04-18T08:15:29.589Z,14.52
2018-04-18T08:17:56.454Z,14.75
2018-04-18T08:20:23.781Z,14.65
2018-04-18T08:22:50.649Z,15.48
2018-04-18T08:25:17.524Z,15.73
2018-04-18T08:27:50.178Z,19.20
2018-04-18T08:30:17.018Z,15.60
2018-04-18T08:32:43.915Z,15.37
2018-04-18T08:35:10.775Z,15.43
2018-04-18T08:37:37.711Z,15.70
2018-04-18T08:40:04.775Z,15.38
2018-04-18T08:42:32.045Z,15.50
2018-04-18T08:44:58.908Z,14.80
2018-04-18T08:47:25.783Z,15.37
2018-04-18T08:49:52.938Z,14.63
2018-04-18T08:52:20.093Z,14.48
2018-04-18T08:54:46.949Z,14.63
2018-04-18T08:57:13.810Z,14.23
2018-04-18T08:59:40.659Z,14.10
2018-04-18T09:02:07.625Z,14.55
2018-04-18T09:04:34.847Z,13.88
2018-04-18T09:07:01.724Z,15.07
2018-04-18T09:09:28.597Z,13.60
2018-04-18T09:11:55.514Z,13.40
2018-04-18T09:14:22.313Z,13.40
2018-04-18T09:16:49.185Z,12.65
2018-04-18T09:19:16.019Z,12.77
2018-04-18T09:21:42.873Z,12.65
2018-04-18T09:24:09.713Z,12.30
2018-04-18T09:26:36.818Z,10.80
2018-04-18T09:29:03.966Z,11.25
2018-04-18T09:31:30.786Z,9.00
2018-04-18T09:33:57.857Z,10.80
2018-04-18T09:36:24.673Z,10.52
2018-04-18T09:38:51.512Z,10.30
2018-04-18T09:41:18.326Z,10.50
2018-04-18T09:43:45.158Z,7.10
2018-04-18T09:46:12.009Z,5.90
2018-04-18T09:48:38.875Z,6.68
2018-04-18T09:51:05.689Z,5.80
2018-04-18T09:53:32.832Z,6.03
2018-04-18T09:55:59.661Z,6.37
2018-04-18T09:58:26.525Z,5.00
2018-04-18T10:00:53.355Z,3.55
2018-04-18T10:03:20.215Z,4.30
2018-04-18T10:05:47.060Z,3.77
2018-04-18T10:08:13.906Z,4.70
2018-04-18T10:10:40.751Z,4.93
2018-04-18T10:13:07.637Z,5.78
2018-04-18T10:15:34.462Z,5.35
2018-04-18T10:18:01.297Z,5.60
2018-04-18T10:20:28.396Z,4.70
2018-04-18T10:22:55.295Z,4.85
2018-04-18T10:25:22.100Z,4.40
2018-04-18T10:27:48.928Z,4.55
2018-04-18T10:30:15.766Z,4.90
2018-04-18T10:32:42.627Z,4.10
2018-04-18T10:35:09.484Z,5.50
2018-04-18T10:37:36.342Z,5.17
2018-04-18T10:40:03.444Z,5.25
2018-04-18T10:42:30.536Z,4.90
2018-04-18T10:44:57.641Z,4.80
2018-04-18T10:47:24.795Z,4.30
2018-04-18T10:49:51.666Z,4.60
2018-04-18T10:52:18.791Z,4.68
2018-04-18T10:54:45.643Z,5.03
2018-04-18T10:57:12.459Z,5.60
2018-04-18T10:59:39.521Z,4.90
2018-04-18T11:02:06.351Z,4.90
2018-04-18T11:04:33.518Z,4.97
2018-04-18T11:07:00.362Z,4.60
2018-04-18T11:09:27.506Z,4.37
2018-04-18T11:11:54.339Z,4.90
2018-04-18T11:14:21.506Z,4.80
2018-04-18T11:16:48.655Z,4.80
2018-04-18T11:19:15.526Z,4.30
2018-04-18T11:21:42.380Z,5.23
2018-04-18T11:24:09.232Z,5.07
2018-04-18T11:26:36.335Z,4.50
2018-04-18T11:29:03.202Z,4.50
2018-04-18T11:31:30.014Z,4.80
2018-04-18T11:33:56.877Z,4.53
2018-04-18T11:36:23.730Z,3.80
2018-04-18T11:38:50.558Z,4.20
2018-04-18T11:41:17.485Z,4.30
2018-04-18T11:43:44.307Z,4.57
2018-04-18T11:46:11.179Z,4.30
2018-04-18T11:48:38.098Z,5.20
2018-04-18T11:51:04.947Z,4.15
2018-04-18T11:53:32.018Z,5.07
2018-04-18T11:55:58.927Z,4.82
2018-04-18T11:58:26.009Z,4.40
2018-04-18T12:00:52.879Z,4.40
2018-04-18T12:03:20.009Z,4.37
2018-04-18T12:05:46.871Z,4.68
2018-04-18T12:08:13.693Z,4.00
2018-04-18T12:10:40.533Z,5.10
2018-04-18T12:13:07.431Z,5.20
2018-04-18T12:15:34.295Z,4.82
2018-04-18T12:18:01.139Z,4.40
2018-04-18T12:20:27.995Z,4.80
2018-04-18T12:22:55.167Z,4.90
2018-04-18T12:25:22.019Z,4.95
2018-04-18T12:27:48.879Z,4.00
2018-04-18T12:30:15.998Z,4.43
2018-04-18T12:32:42.821Z,4.00
2018-04-18T12:35:09.686Z,4.30
2018-04-18T12:37:36.546Z,4.20
2018-04-18T12:40:03.367Z,4.20
2018-04-18T12:42:30.198Z,3.70
2018-04-18T12:44:57.018Z,4.28
2018-04-18T12:47:23.884Z,4.27
2018-04-18T12:49:50.738Z,3.78
2018-04-18T12:52:17.594Z,4.30
2018-04-18T12:54:44.401Z,4.10
2018-04-18T12:57:11.270Z,4.00
2018-04-18T12:59:38.118Z,4.10
2018-04-18T13:02:05.265Z,3.80
2018-04-18T13:04:32.341Z,3.70
2018-04-18T13:06:59.462Z,4.00
2018-04-18T13:09:26.543Z,4.32
2018-04-18T13:11:53.374Z,3.85
2018-04-18T13:14:20.211Z,4.00
2018-04-18T13:16:47.045Z,3.70
2018-04-18T13:19:14.096Z,3.97
2018-04-18T13:21:41.193Z,4.90
2018-04-18T13:24:08.407Z,4.70
2018-04-18T13:26:35.282Z,4.43
2018-04-18T13:29:02.163Z,4.35
2018-04-18T13:31:29.005Z,4.00
2018-04-18T13:33:55.866Z,4.07
2018-04-18T13:36:22.685Z,4.40
2018-04-18T13:38:49.526Z,4.20
2018-04-18T13:41:16.338Z,3.80
2018-04-18T13:43:43.447Z,3.90
2018-04-18T13:46:10.598Z,4.07
2018-04-18T13:48:37.475Z,4.20
2018-04-18T13:51:04.590Z,3.90
2018-04-18T13:53:31.433Z,4.20
2018-04-18T13:55:58.242Z,3.90
2018-04-18T13:58:25.431Z,4.30
2018-04-18T14:00:52.250Z,4.10
2018-04-18T14:03:19.074Z,3.53
2018-04-18T14:05:46.158Z,5.50
2018-04-18T14:08:12.994Z,4.07
2018-04-18T14:10:39.847Z,4.60
2018-04-18T14:13:06.999Z,5.28
2018-04-18T14:15:33.830Z,4.60
2018-04-18T14:18:00.985Z,5.37
2018-04-18T14:20:28.143Z,4.90
2018-04-18T14:22:54.974Z,4.55
2018-04-18T14:25:21.838Z,4.15
2018-04-18T14:27:48.707Z,4.80
2018-04-18T14:30:15.829Z,4.45
2018-04-18T14:32:42.678Z,4.00
2018-04-18T14:35:09.490Z,4.20
2018-04-18T14:37:36.355Z,4.18
2018-04-18T14:40:03.196Z,4.70
2018-04-18T14:42:30.045Z,4.70
2018-04-18T14:44:56.902Z,4.15
2018-04-18T14:47:23.755Z,4.30
2018-04-18T14:49:50.623Z,4.35
2018-04-18T14:52:17.466Z,3.80
2018-04-18T14:54:44.557Z,3.90
2018-04-18T14:57:11.381Z,3.90
2018-04-18T14:59:38.238Z,3.90
2018-04-18T15:02:05.094Z,4.60
2018-04-18T15:04:31.955Z,4.63
2018-04-18T15:06:58.777Z,5.25
2018-04-18T15:09:25.930Z,4.55
2018-04-18T15:11:52.779Z,4.32
2018-04-18T15:14:19.614Z,4.55
2018-04-18T15:16:46.482Z,4.47
2018-04-18T15:19:13.326Z,4.45
2018-04-18T15:21:40.183Z,4.95
2018-04-18T15:24:07.295Z,4.62
2018-04-18T15:26:34.115Z,4.60
2018-04-18T15:29:00.988Z,4.47
2018-04-18T15:31:27.834Z,4.62
2018-04-18T15:33:54.683Z,3.90
2018-04-18T15:36:21.546Z,3.95
2018-04-18T15:38:48.412Z,4.70
2018-04-18T15:41:15.294Z,4.45
2018-04-18T15:43:42.147Z,4.75
2018-04-18T15:46:08.969Z,5.55
2018-04-18T15:48:36.141Z,4.68
2018-04-18T15:51:03.286Z,4.72
2018-04-18T15:53:30.146Z,5.20
2018-04-18T15:55:56.986Z,4.53
2018-04-18T15:58:23.858Z,4.80
2018-04-18T16:00:50.673Z,4.45
2018-04-18T16:03:17.510Z,4.20
2018-04-18T16:05:44.348Z,3.90
2018-04-18T16:08:11.236Z,4.12
2018-04-18T16:10:38.448Z,4.25
2018-04-18T16:13:05.275Z,3.65
2018-04-18T16:15:32.101Z,3.10
2018-04-18T16:17:58.950Z,3.83
2018-04-18T16:20:25.787Z,3.90
2018-04-18T16:22:52.649Z,3.70
2018-04-18T16:25:19.763Z,3.85
2018-04-18T16:27:46.537Z,5.03
2018-04-18T16:30:31.097Z,3.85
2018-04-18T16:32:58.152Z,3.90
2018-04-18T16:35:25.191Z,4.20
2018-04-18T16:37:52.319Z,3.50
2018-04-18T16:40:19.361Z,3.30
2018-04-18T16:42:46.437Z,3.00
2018-04-18T16:45:13.588Z,3.03
2018-04-18T16:47:40.637Z,2.83
2018-04-18T16:50:07.440Z,2.70
2018-04-18T16:52:34.253Z,2.90
2018-04-18T16:55:01.041Z,2.30
2018-04-18T16:57:27.858Z,2.73
2018-04-18T16:59:54.959Z,2.70
2018-04-18T17:02:21.781Z,2.60
2018-04-18T17:04:48.576Z,3.00
2018-04-18T17:07:15.429Z,2.90
2018-04-18T17:09:42.204Z,2.90
2018-04-18T17:12:08.997Z,3.00
2018-04-18T17:14:36.123Z,2.70
2018-04-18T17:17:03.164Z,2.67
2018-04-18T17:19:30.322Z,2.80
2018-04-18T17:21:57.157Z,2.63
2018-04-18T17:24:23.944Z,3.10
2018-04-18T17:26:50.761Z,2.50
2018-04-18T17:29:17.613Z,2.60
2018-04-18T17:31:44.419Z,2.75
2018-04-18T17:34:11.204Z,2.75
2018-04-18T17:36:38.058Z,2.90
2018-04-18T17:39:04.843Z,2.80
2018-04-18T17:41:31.690Z,3.00
2018-04-18T17:43:58.529Z,3.00
2018-04-18T17:46:25.316Z,3.00
2018-04-18T17:48:52.162Z,3.50
2018-04-18T17:51:19.281Z,2.83
2018-04-18T17:53:46.330Z,2.40
2018-04-18T17:56:13.376Z,3.50
2018-04-18T17:58:40.196Z,2.83
2018-04-18T18:01:06.979Z,3.65
2018-04-18T18:03:33.769Z,3.20
2018-04-18T18:06:00.957Z,4.40
2018-04-18T18:08:27.782Z,5.22
2018-04-18T18:10:54.581Z,7.35
2018-04-18T18:13:21.438Z,8.90
2018-04-18T18:15:48.310Z,9.20
2018-04-18T18:18:15.105Z,9.60
2018-04-18T18:20:42.180Z,9.02
2018-04-18T18:23:08.955Z,9.75
2018-04-18T18:25:35.753Z,13.32
2018-04-18T18:28:02.610Z,9.47
2018-04-18T18:30:29.398Z,8.38
2018-04-18T18:32:56.188Z,8.82
2018-04-18T18:35:23.054Z,8.10
2018-04-18T18:37:49.866Z,8.32
2018-04-18T18:40:17.219Z,7.90
2018-04-18T18:42:44.025Z,7.10
2018-04-18T18:45:10.815Z,8.10
2018-04-18T18:47:37.900Z,8.20
2018-04-18T18:50:04.708Z,7.70
2018-04-18T18:52:31.798Z,8.20
2018-04-18T18:54:58.613Z,7.93
2018-04-18T18:57:25.469Z,7.62
2018-04-18T18:59:52.282Z,8.70
2018-04-18T19:02:19.098Z,8.30
2018-04-18T19:04:46.227Z,8.77
2018-04-18T19:07:13.016Z,11.20
2018-04-18T19:09:39.816Z,11.12
2018-04-18T19:12:06.655Z,9.60
2018-04-18T19:14:33.439Z,10.93
2018-04-18T19:17:00.247Z,10.63
2018-04-18T19:19:27.089Z,13.43
2018-04-18T19:21:53.906Z,13.07
2018-04-18T19:24:20.701Z,12.95
2018-04-18T19:26:47.517Z,11.57
2018-04-18T19:29:14.313Z,10.93
2018-04-18T19:31:41.138Z,9.60
2018-04-18T19:34:07.950Z,9.63
2018-04-18T19:36:34.733Z,9.30
2018-04-18T19:39:01.550Z,8.77
2018-04-18T19:41:28.400Z,9.43
2018-04-18T19:43:55.201Z,9.63
2018-04-18T19:46:21.992Z,13.82
2018-04-18T19:48:49.095Z,16.73
2018-04-18T19:51:15.890Z,12.63
2018-04-18T19:53:42.702Z,11.10
2018-04-18T19:56:09.537Z,10.97
2018-04-18T19:58:36.585Z,11.55
2018-04-18T20:01:03.409Z,12.30
2018-04-18T20:03:30.452Z,10.48
2018-04-18T20:05:57.241Z,11.10
2018-04-18T20:08:24.256Z,10.50
2018-04-18T20:10:51.102Z,10.80
2018-04-18T20:13:18.166Z,14.15
2018-04-18T20:15:44.949Z,13.90
2018-04-18T20:18:11.777Z,18.05
2018-04-18T20:20:38.829Z,13.60
2018-04-18T20:23:05.616Z,12.00
2018-04-18T20:25:32.721Z,10.68
2018-04-18T20:27:59.542Z,10.90
2018-04-18T20:30:26.369Z,10.98
2018-04-18T20:32:53.226Z,10.05
2018-04-18T20:35:20.352Z,11.12
2018-04-18T20:37:47.137Z,11.00
2018-04-18T20:40:14.226Z,10.70
2018-04-18T20:42:46.959Z,11.07
2018-04-18T20:45:13.836Z,11.18
2018-04-18T20:47:40.606Z,10.90
2018-04-18T20:50:07.640Z,11.30
2018-04-18T20:52:34.489Z,11.05
2018-04-18T20:55:01.504Z,10.50
2018-04-18T20:57:28.338Z,11.20
2018-04-18T20:59:55.209Z,11.35
2018-04-18T21:02:22.254Z,12.05
2018-04-18T21:04:49.057Z,11.50
2018-04-18T21:07:16.096Z,11.20
2018-04-18T21:09:42.893Z,10.85
2018-04-18T21:12:10.053Z,11.40
2018-04-18T21:14:36.871Z,11.57
2018-04-18T21:17:03.938Z,12.35
2018-04-18T21:19:30.762Z,11.68
2018-04-18T21:21:57.568Z,11.00
2018-04-18T21:24:24.674Z,10.57
2018-04-18T21:26:51.511Z,11.95
2018-04-18T21:29:18.361Z,12.30
2018-04-18T21:31:45.153Z,11.50
2018-04-18T21:34:11.982Z,11.20
2018-04-18T21:36:38.883Z,11.75
2018-04-18T21:39:05.676Z,11.18
2018-04-18T21:41:32.732Z,10.73
2018-04-18T21:43:59.833Z,10.63
2018-04-18T21:46:26.985Z,11.05
2018-04-18T21:48:53.797Z,10.50
2018-04-18T21:51:20.871Z,11.10
2018-04-18T21:53:47.664Z,11.60
2018-04-18T21:56:14.493Z,10.90
2018-04-18T21:58:41.358Z,11.60
2018-04-18T22:03:58.745Z,10.95
2018-04-18T22:06:37.366Z,11.15
2018-04-18T22:09:10.237Z,11.43
2018-04-18T22:11:37.057Z,10.87
2018-04-18T22:14:10.722Z,10.50
2018-04-18T22:16:43.688Z,10.18
2018-04-18T22:19:10.461Z,10.18
2018-04-18T22:21:37.248Z,10.60
2018-04-18T22:24:04.312Z,11.38
2018-04-18T22:26:31.468Z,10.95
2018-04-18T22:28:58.324Z,10.52
2018-04-18T22:31:25.468Z,10.70
2018-04-18T22:33:52.256Z,11.10
2018-04-18T22:36:19.125Z,10.80
2018-04-18T22:38:45.918Z,10.15
2018-04-18T22:41:12.730Z,10.70
2018-04-18T22:43:39.524Z,10.20
2018-04-18T22:46:06.389Z,11.10
2018-04-18T22:48:33.460Z,9.70
2018-04-18T22:51:00.306Z,10.10
2018-04-18T22:53:27.348Z,10.57
2018-04-18T22:55:54.506Z,10.53
2018-04-18T22:58:21.654Z,10.10
2018-04-18T23:00:48.440Z,9.98
2018-04-18T23:03:15.289Z,9.18
2018-04-18T23:05:42.080Z,9.40
2018-04-18T23:08:08.931Z,9.30
2018-04-18T23:10:36.077Z,10.40
2018-04-18T23:13:02.925Z,9.98
2018-04-18T23:15:29.748Z,9.67
2018-04-18T23:17:56.552Z,9.90
2018-04-18T23:20:23.359Z,9.60
2018-04-18T23:22:50.497Z,9.60
2018-04-18T23:25:17.281Z,9.15
2018-04-18T23:27:44.093Z,9.43
2018-04-18T23:30:10.880Z,9.65
2018-04-18T23:32:37.970Z,9.68
2018-04-18T23:35:04.784Z,8.93
2018-04-18T23:37:31.605Z,9.38
2018-04-18T23:39:58.416Z,8.70
2018-04-18T23:42:25.200Z,9.40
2018-04-18T23:44:52.286Z,9.55
2018-04-18T23:47:19.139Z,8.80
2018-04-18T23:49:45.911Z,9.30
2018-04-18T23:52:12.724Z,8.50
2018-04-18T23:54:39.770Z,8.07
2018-04-18T23:57:06.613Z,8.93
2018-04-18T23:59:33.425Z,8.40
